createdAt,value
2019-02-09T00:00:50.721Z,974.96
2019-02-09T00:01:50.659Z,974.92
2019-02-09T00:02:50.654Z,974.87
2019-02-09T00:03:50.661Z,974.89
2019-02-09T00:04:50.676Z,974.95
2019-02-09T00:05:50.613Z,975.00
2019-02-09T00:06:50.647Z,974.93
2019-02-09T00:07:50.615Z,974.98
2019-02-09T00:08:50.625Z,975.00
2019-02-09T00:09:50.574Z,975.00
2019-02-09T00:10:50.582Z,975.02
2019-02-09T00:11:50.557Z,974.97
2019-02-09T00:12:50.556Z,974.83
2019-02-09T00:13:50.611Z,974.87
2019-02-09T00:14:50.630Z,974.92
2019-02-09T00:15:50.557Z,974.88
2019-02-09T00:16:50.511Z,974.92
2019-02-09T00:17:50.487Z,974.84
2019-02-09T00:18:50.477Z,974.92
2019-02-09T00:19:50.491Z,974.98
2019-02-09T00:20:50.458Z,974.91
2019-02-09T00:21:50.523Z,974.92
2019-02-09T00:22:50.491Z,974.92
2019-02-09T00:23:50.435Z,974.96
2019-02-09T00:24:50.434Z,974.99
2019-02-09T00:25:50.420Z,974.94
2019-02-09T00:26:50.396Z,975.02
2019-02-09T00:27:50.420Z,975.01
2019-02-09T00:28:50.385Z,975.03
2019-02-09T00:29:50.369Z,974.92
2019-02-09T00:30:50.378Z,974.99
2019-02-09T00:31:50.366Z,974.94
2019-02-09T00:32:50.342Z,974.79
2019-02-09T00:33:50.317Z,974.88
2019-02-09T00:34:50.323Z,974.88
2019-02-09T00:35:50.303Z,974.92
2019-02-09T00:36:50.281Z,974.89
2019-02-09T00:37:50.277Z,974.86
2019-02-09T00:38:50.310Z,974.87
2019-02-09T00:39:50.267Z,974.87
2019-02-09T00:40:50.262Z,974.88
2019-02-09T00:41:50.257Z,974.95
2019-02-09T00:42:50.219Z,974.92
2019-02-09T00:43:50.215Z,974.87
2019-02-09T00:44:50.227Z,975.00
2019-02-09T00:45:50.198Z,974.91
2019-02-09T00:46:50.193Z,974.82
2019-02-09T00:47:50.174Z,974.83
2019-02-09T00:48:50.184Z,974.92
2019-02-09T00:49:50.154Z,974.85
2019-02-09T00:50:50.178Z,974.91
2019-02-09T00:51:50.134Z,974.91
2019-02-09T00:52:50.193Z,974.89
2019-02-09T00:53:50.993Z,974.87
2019-02-09T00:54:50.102Z,974.81
2019-02-09T00:55:50.151Z,974.76
2019-02-09T00:56:50.102Z,974.77
2019-02-09T00:57:50.094Z,974.73
2019-02-09T00:58:50.061Z,974.79
2019-02-09T00:59:54.186Z,974.74
2019-02-09T01:00:50.031Z,974.74
2019-02-09T01:01:50.031Z,974.71
2019-02-09T01:02:50.034Z,974.74
2019-02-09T01:03:50.020Z,974.69
2019-02-09T01:04:52.505Z,974.64
2019-02-09T01:05:49.977Z,974.64
2019-02-09T01:06:49.967Z,974.61
2019-02-09T01:07:49.958Z,974.56
2019-02-09T01:08:50.052Z,974.62
2019-02-09T01:09:50.491Z,974.62
2019-02-09T01:10:49.923Z,974.58
2019-02-09T01:11:50.553Z,974.59
2019-02-09T01:12:49.903Z,974.60
2019-02-09T01:13:50.111Z,974.51
2019-02-09T01:14:49.911Z,974.54
2019-02-09T01:15:49.896Z,974.52
2019-02-09T01:16:49.883Z,974.50
2019-02-09T01:17:49.912Z,974.46
2019-02-09T01:18:49.846Z,974.42
2019-02-09T01:19:49.836Z,974.42
2019-02-09T01:20:49.837Z,974.40
2019-02-09T01:21:49.814Z,974.42
2019-02-09T01:22:49.811Z,974.43
2019-02-09T01:23:49.855Z,974.36
2019-02-09T01:24:49.799Z,974.40
2019-02-09T01:25:49.763Z,974.33
2019-02-09T01:26:49.839Z,974.37
2019-02-09T01:27:50.492Z,974.42
2019-02-09T01:28:49.732Z,974.41
2019-02-09T01:29:49.727Z,974.43
2019-02-09T01:30:49.728Z,974.41
2019-02-09T01:31:49.710Z,974.30
2019-02-09T01:32:49.728Z,974.20
2019-02-09T01:33:49.680Z,974.11
2019-02-09T01:34:50.005Z,974.10
2019-02-09T01:35:49.724Z,974.02
2019-02-09T01:36:50.492Z,973.92
2019-02-09T01:37:50.504Z,973.97
2019-02-09T01:38:49.688Z,973.95
2019-02-09T01:39:49.640Z,974.04
2019-02-09T01:40:49.604Z,974.04
2019-02-09T01:41:49.600Z,974.05
2019-02-09T01:42:49.584Z,974.20
2019-02-09T01:43:49.629Z,974.26
2019-02-09T01:44:49.605Z,974.18
2019-02-09T01:45:49.600Z,974.19
2019-02-09T01:46:49.546Z,974.18
2019-02-09T01:47:50.552Z,974.30
2019-02-09T01:48:49.529Z,974.17
2019-02-09T01:49:50.510Z,974.18
2019-02-09T01:50:49.522Z,974.28
2019-02-09T01:51:49.513Z,974.26
2019-02-09T01:52:49.485Z,974.30
2019-02-09T01:53:49.473Z,974.38
2019-02-09T01:54:49.480Z,974.37
2019-02-09T01:55:49.608Z,974.36
2019-02-09T01:56:49.553Z,974.42
2019-02-09T01:57:49.494Z,974.39
2019-02-09T01:58:50.000Z,974.46
2019-02-09T01:59:49.420Z,974.48
2019-02-09T02:00:49.461Z,974.44
2019-02-09T02:01:49.384Z,974.42
2019-02-09T02:02:49.398Z,974.44
2019-02-09T02:03:49.379Z,974.38
2019-02-09T02:04:49.373Z,974.43
2019-02-09T02:05:49.357Z,974.32
2019-02-09T02:06:49.333Z,974.37
2019-02-09T02:07:49.342Z,974.29
2019-02-09T02:08:49.323Z,974.35
2019-02-09T02:09:49.296Z,974.34
2019-02-09T02:10:49.302Z,974.32
2019-02-09T02:11:49.302Z,974.32
2019-02-09T02:12:49.278Z,974.34
2019-02-09T02:13:49.262Z,974.29
2019-02-09T02:14:49.251Z,974.35
2019-02-09T02:15:49.253Z,974.38
2019-02-09T02:16:49.440Z,974.38
2019-02-09T02:17:49.237Z,974.35
2019-02-09T02:18:49.236Z,974.43
2019-02-09T02:19:49.257Z,974.39
2019-02-09T02:20:49.184Z,974.39
2019-02-09T02:21:49.185Z,974.30
2019-02-09T02:22:49.165Z,974.33
2019-02-09T02:23:49.156Z,974.38
2019-02-09T02:24:49.177Z,974.39
2019-02-09T02:25:49.133Z,974.39
2019-02-09T02:26:49.995Z,974.39
2019-02-09T02:27:49.124Z,974.38
2019-02-09T02:28:49.096Z,974.34
2019-02-09T02:29:49.087Z,974.36
2019-02-09T02:30:49.077Z,974.34
2019-02-09T02:31:49.087Z,974.35
2019-02-09T02:32:51.493Z,974.26
2019-02-09T02:33:49.075Z,974.22
2019-02-09T02:34:49.045Z,974.27
2019-02-09T02:35:49.028Z,974.25
2019-02-09T02:36:49.119Z,974.23
2019-02-09T02:37:50.250Z,974.25
2019-02-09T02:38:49.002Z,974.29
2019-02-09T02:39:49.006Z,974.25
2019-02-09T02:40:49.059Z,974.25
2019-02-09T02:41:48.966Z,974.23
2019-02-09T02:42:48.954Z,974.32
2019-02-09T02:43:48.958Z,974.34
2019-02-09T02:44:48.976Z,974.31
2019-02-09T02:45:48.937Z,974.16
2019-02-09T02:46:48.912Z,974.10
2019-02-09T02:47:48.954Z,974.08
2019-02-09T02:48:49.506Z,974.06
2019-02-09T02:49:48.893Z,974.13
2019-02-09T02:50:48.886Z,974.15
2019-02-09T02:51:48.958Z,974.10
2019-02-09T02:52:48.862Z,974.07
2019-02-09T02:53:48.833Z,974.08
2019-02-09T02:54:49.520Z,973.97
2019-02-09T02:55:48.843Z,973.97
2019-02-09T02:56:48.813Z,973.94
2019-02-09T02:57:49.051Z,973.86
2019-02-09T02:58:48.790Z,973.84
2019-02-09T02:59:49.541Z,973.86
2019-02-09T03:00:48.830Z,973.89
2019-02-09T03:01:48.775Z,973.95
2019-02-09T03:02:48.754Z,974.00
2019-02-09T03:03:48.736Z,973.96
2019-02-09T03:04:48.720Z,973.99
2019-02-09T03:05:48.755Z,974.08
2019-02-09T03:06:48.712Z,974.06
2019-02-09T03:07:48.716Z,974.07
2019-02-09T03:08:48.692Z,973.95
2019-02-09T03:09:48.685Z,974.05
2019-02-09T03:10:48.659Z,974.05
2019-02-09T03:11:48.660Z,974.00
2019-02-09T03:12:48.649Z,973.99
2019-02-09T03:13:48.628Z,973.90
2019-02-09T03:14:48.610Z,973.93
2019-02-09T03:15:48.603Z,974.01
2019-02-09T03:16:48.608Z,974.00
2019-02-09T03:17:48.608Z,974.04
2019-02-09T03:18:48.572Z,974.10
2019-02-09T03:19:48.564Z,974.18
2019-02-09T03:20:48.573Z,974.12
2019-02-09T03:21:48.554Z,974.22
2019-02-09T03:22:48.534Z,974.16
2019-02-09T03:23:48.621Z,974.23
2019-02-09T03:24:48.516Z,974.26
2019-02-09T03:25:48.512Z,974.26
2019-02-09T03:26:48.487Z,974.28
2019-02-09T03:27:48.477Z,974.23
2019-02-09T03:28:48.504Z,974.14
2019-02-09T03:29:48.456Z,974.28
2019-02-09T03:30:49.232Z,974.31
2019-02-09T03:31:48.453Z,974.39
2019-02-09T03:32:48.418Z,974.41
2019-02-09T03:33:48.409Z,974.42
2019-02-09T03:34:48.413Z,974.38
2019-02-09T03:35:48.403Z,974.34
2019-02-09T03:36:48.396Z,974.37
2019-02-09T03:37:48.385Z,974.45
2019-02-09T03:38:48.360Z,974.44
2019-02-09T03:39:48.342Z,974.46
2019-02-09T03:40:48.337Z,974.49
2019-02-09T03:41:48.378Z,974.49
2019-02-09T03:42:48.388Z,974.47
2019-02-09T03:43:48.301Z,974.60
2019-02-09T03:44:48.303Z,974.58
2019-02-09T03:45:48.287Z,974.53
2019-02-09T03:46:48.271Z,974.61
2019-02-09T03:47:48.278Z,974.68
2019-02-09T03:48:48.303Z,974.61
2019-02-09T03:49:48.242Z,974.72
2019-02-09T03:50:48.240Z,974.68
2019-02-09T03:51:48.230Z,974.66
2019-02-09T03:52:48.227Z,974.65
2019-02-09T03:53:48.194Z,974.69
2019-02-09T03:54:48.212Z,974.70
2019-02-09T03:55:48.246Z,974.72
2019-02-09T03:56:48.184Z,974.70
2019-02-09T03:57:48.158Z,974.71
2019-02-09T03:58:48.149Z,974.68
2019-02-09T03:59:48.147Z,974.72
2019-02-09T04:00:55.189Z,974.73
2019-02-09T04:01:49.134Z,974.68
2019-02-09T04:02:48.105Z,974.58
2019-02-09T04:03:48.097Z,974.63
2019-02-09T04:04:48.086Z,974.66
2019-02-09T04:05:48.081Z,974.53
2019-02-09T04:06:48.066Z,974.59
2019-02-09T04:07:48.068Z,974.60
2019-02-09T04:08:48.063Z,974.61
2019-02-09T04:09:48.030Z,974.60
2019-02-09T04:10:48.015Z,974.58
2019-02-09T04:11:48.009Z,974.62
2019-02-09T04:12:48.016Z,974.54
2019-02-09T04:13:48.023Z,974.54
2019-02-09T04:14:48.037Z,974.60
2019-02-09T04:15:48.021Z,974.48
2019-02-09T04:16:47.964Z,974.49
2019-02-09T04:17:47.946Z,974.50
2019-02-09T04:18:47.933Z,974.56
2019-02-09T04:19:47.951Z,974.54
2019-02-09T04:20:47.909Z,974.56
2019-02-09T04:21:47.915Z,974.57
2019-02-09T04:22:47.953Z,974.61
2019-02-09T04:23:47.883Z,974.67
2019-02-09T04:24:47.878Z,974.75
2019-02-09T04:25:47.898Z,974.75
2019-02-09T04:26:47.878Z,974.70
2019-02-09T04:27:47.836Z,974.69
2019-02-09T04:28:47.852Z,974.68
2019-02-09T04:29:47.818Z,974.79
2019-02-09T04:30:47.805Z,974.74
2019-02-09T04:31:47.822Z,974.81
2019-02-09T04:32:47.806Z,974.76
2019-02-09T04:33:47.784Z,974.70
2019-02-09T04:34:47.786Z,974.83
2019-02-09T04:35:47.753Z,974.78
2019-02-09T04:36:47.742Z,974.87
2019-02-09T04:37:47.764Z,974.85
2019-02-09T04:38:47.718Z,974.87
2019-02-09T04:39:47.741Z,974.89
2019-02-09T04:40:47.701Z,974.88
2019-02-09T04:41:47.693Z,974.96
2019-02-09T04:42:47.683Z,975.08
2019-02-09T04:43:47.998Z,975.02
2019-02-09T04:44:47.663Z,974.98
2019-02-09T04:45:47.673Z,975.00
2019-02-09T04:46:47.646Z,975.07
2019-02-09T04:47:47.634Z,975.07
2019-02-09T04:48:47.643Z,975.16
2019-02-09T04:49:47.647Z,975.16
2019-02-09T04:50:47.605Z,975.06
2019-02-09T04:51:47.649Z,975.20
2019-02-09T04:52:47.582Z,975.16
2019-02-09T04:53:47.562Z,975.13
2019-02-09T04:54:47.629Z,975.26
2019-02-09T04:55:47.571Z,975.17
2019-02-09T04:56:47.545Z,975.22
2019-02-09T04:57:47.539Z,975.26
2019-02-09T04:58:47.551Z,975.16
2019-02-09T04:59:47.504Z,975.32
2019-02-09T05:00:47.493Z,975.24
2019-02-09T05:01:47.576Z,975.30
2019-02-09T05:02:47.497Z,975.27
2019-02-09T05:03:47.456Z,975.14
2019-02-09T05:04:47.455Z,975.30
2019-02-09T05:05:47.489Z,975.30
2019-02-09T05:06:47.442Z,975.25
2019-02-09T05:07:47.450Z,975.32
2019-02-09T05:08:47.416Z,975.19
2019-02-09T05:09:47.418Z,975.27
2019-02-09T05:10:47.384Z,975.37
2019-02-09T05:11:47.382Z,975.35
2019-02-09T05:12:47.388Z,975.31
2019-02-09T05:13:47.419Z,975.33
2019-02-09T05:14:47.360Z,975.35
2019-02-09T05:15:47.340Z,975.34
2019-02-09T05:16:47.320Z,975.37
2019-02-09T05:17:47.323Z,975.34
2019-02-09T05:18:47.393Z,975.39
2019-02-09T05:19:47.298Z,975.47
2019-02-09T05:20:47.282Z,975.48
2019-02-09T05:21:47.271Z,975.44
2019-02-09T05:22:47.287Z,975.51
2019-02-09T05:23:47.304Z,975.51
2019-02-09T05:24:47.243Z,975.42
2019-02-09T05:25:47.304Z,975.51
2019-02-09T05:26:47.217Z,975.52
2019-02-09T05:27:47.242Z,975.50
2019-02-09T05:28:47.197Z,975.55
2019-02-09T05:29:47.191Z,975.54
2019-02-09T05:30:47.178Z,975.47
2019-02-09T05:31:47.180Z,975.51
2019-02-09T05:32:47.162Z,975.55
2019-02-09T05:33:47.168Z,975.52
2019-02-09T05:34:47.135Z,975.56
2019-02-09T05:35:47.115Z,975.54
2019-02-09T05:36:47.176Z,975.51
2019-02-09T05:37:47.102Z,975.64
2019-02-09T05:38:47.111Z,975.55
2019-02-09T05:39:47.099Z,975.53
2019-02-09T05:40:47.090Z,975.54
2019-02-09T05:41:47.075Z,975.58
2019-02-09T05:42:47.062Z,975.65
2019-02-09T05:43:47.165Z,975.65
2019-02-09T05:44:47.048Z,975.70
2019-02-09T05:45:47.027Z,975.75
2019-02-09T05:46:47.209Z,975.78
2019-02-09T05:47:47.034Z,975.71
2019-02-09T05:48:46.977Z,975.75
2019-02-09T05:49:46.978Z,975.71
2019-02-09T05:50:46.978Z,975.83
2019-02-09T05:51:46.952Z,975.75
2019-02-09T05:52:46.976Z,975.75
2019-02-09T05:53:46.936Z,975.76
2019-02-09T05:54:46.944Z,975.69
2019-02-09T05:55:46.906Z,975.83
2019-02-09T05:56:46.986Z,975.69
2019-02-09T05:57:46.949Z,975.80
2019-02-09T05:58:46.885Z,975.84
2019-02-09T05:59:46.954Z,975.82
2019-02-09T06:00:46.867Z,975.84
2019-02-09T06:01:46.918Z,975.89
2019-02-09T06:02:46.871Z,975.90
2019-02-09T06:03:46.852Z,975.91
2019-02-09T06:04:46.811Z,975.93
2019-02-09T06:05:46.797Z,975.93
2019-02-09T06:06:46.792Z,975.95
2019-02-09T06:07:46.885Z,976.03
2019-02-09T06:08:46.793Z,976.05
2019-02-09T06:09:46.756Z,976.06
2019-02-09T06:10:46.765Z,976.05
2019-02-09T06:11:46.739Z,976.08
2019-02-09T06:12:46.734Z,976.12
2019-02-09T06:13:46.748Z,976.16
2019-02-09T06:14:46.707Z,976.11
2019-02-09T06:15:46.704Z,976.13
2019-02-09T06:16:46.685Z,976.05
2019-02-09T06:17:46.682Z,976.09
2019-02-09T06:18:46.679Z,976.17
2019-02-09T06:19:46.652Z,976.13
2019-02-09T06:20:46.673Z,976.20
2019-02-09T06:21:46.635Z,976.26
2019-02-09T06:22:46.626Z,976.30
2019-02-09T06:23:46.622Z,976.33
2019-02-09T06:24:46.674Z,976.26
2019-02-09T06:25:46.613Z,976.32
2019-02-09T06:26:46.589Z,976.24
2019-02-09T06:27:46.600Z,976.29
2019-02-09T06:28:46.566Z,976.27
2019-02-09T06:29:46.554Z,976.36
2019-02-09T06:30:46.562Z,976.44
2019-02-09T06:31:46.537Z,976.43
2019-02-09T06:32:46.557Z,976.38
2019-02-09T06:33:46.555Z,976.44
2019-02-09T06:34:46.489Z,976.47
2019-02-09T06:35:46.494Z,976.42
2019-02-09T06:36:46.476Z,976.39
2019-02-09T06:37:46.475Z,976.44
2019-02-09T06:38:46.473Z,976.39
2019-02-09T06:39:46.463Z,976.39
2019-02-09T06:40:46.513Z,976.41
2019-02-09T06:41:46.432Z,976.44
2019-02-09T06:42:46.416Z,976.39
2019-02-09T06:43:46.398Z,976.34
2019-02-09T06:44:46.388Z,976.30
2019-02-09T06:45:46.546Z,976.30
2019-02-09T06:46:46.378Z,976.35
2019-02-09T06:47:46.361Z,976.32
2019-02-09T06:48:46.353Z,976.36
2019-02-09T06:49:46.354Z,976.40
2019-02-09T06:50:46.352Z,976.35
2019-02-09T06:51:46.425Z,976.43
2019-02-09T06:52:46.310Z,976.42
2019-02-09T06:53:46.299Z,976.43
2019-02-09T06:54:46.342Z,976.42
2019-02-09T06:55:46.285Z,976.39
2019-02-09T06:56:46.260Z,976.32
2019-02-09T06:57:46.270Z,976.37
2019-02-09T06:58:46.262Z,976.38
2019-02-09T06:59:46.234Z,976.34
2019-02-09T07:00:46.277Z,976.29
2019-02-09T07:01:48.832Z,976.34
2019-02-09T07:02:46.200Z,976.34
2019-02-09T07:03:46.225Z,976.31
2019-02-09T07:04:46.184Z,976.35
2019-02-09T07:05:46.169Z,976.37
2019-02-09T07:06:46.164Z,976.31
2019-02-09T07:07:46.142Z,976.40
2019-02-09T07:08:46.272Z,976.40
2019-02-09T07:09:46.137Z,976.37
2019-02-09T07:10:46.146Z,976.43
2019-02-09T07:11:46.113Z,976.38
2019-02-09T07:12:46.113Z,976.30
2019-02-09T07:13:46.108Z,976.37
2019-02-09T07:14:46.074Z,976.35
2019-02-09T07:15:46.123Z,976.35
2019-02-09T07:16:46.056Z,976.37
2019-02-09T07:17:46.051Z,976.44
2019-02-09T07:18:46.130Z,976.43
2019-02-09T07:19:46.043Z,976.51
2019-02-09T07:20:46.033Z,976.62
2019-02-09T07:21:46.027Z,976.59
2019-02-09T07:22:45.991Z,976.50
2019-02-09T07:23:46.008Z,976.54
2019-02-09T07:24:45.971Z,976.52
2019-02-09T07:25:45.951Z,976.60
2019-02-09T07:26:45.950Z,976.81
2019-02-09T07:27:45.966Z,976.91
2019-02-09T07:28:46.018Z,976.92
2019-02-09T07:29:45.949Z,976.91
2019-02-09T07:30:45.911Z,976.94
2019-02-09T07:31:46.052Z,976.93
2019-02-09T07:32:45.907Z,977.05
2019-02-09T07:33:45.893Z,977.17
2019-02-09T07:34:45.906Z,977.21
2019-02-09T07:35:45.865Z,977.09
2019-02-09T07:36:45.849Z,977.19
2019-02-09T07:37:45.826Z,977.24
2019-02-09T07:38:45.826Z,977.19
2019-02-09T07:39:45.812Z,977.21
2019-02-09T07:40:45.881Z,977.26
2019-02-09T07:41:45.860Z,977.25
2019-02-09T07:42:45.778Z,977.29
2019-02-09T07:43:46.064Z,977.25
2019-02-09T07:44:45.758Z,977.22
2019-02-09T07:45:45.765Z,977.27
2019-02-09T07:46:46.519Z,977.15
2019-02-09T07:47:45.730Z,977.11
2019-02-09T07:48:45.751Z,977.15
2019-02-09T07:49:45.712Z,977.14
2019-02-09T07:50:45.692Z,977.19
2019-02-09T07:51:45.691Z,977.12
2019-02-09T07:52:45.675Z,977.17
2019-02-09T07:53:45.677Z,977.18
2019-02-09T07:54:45.685Z,977.16
2019-02-09T07:55:45.636Z,977.21
2019-02-09T07:56:45.627Z,977.27
2019-02-09T07:57:45.615Z,977.32
2019-02-09T07:58:45.628Z,977.32
2019-02-09T07:59:45.629Z,977.32
2019-02-09T08:00:45.615Z,977.40
2019-02-09T08:01:45.578Z,977.47
2019-02-09T08:02:45.572Z,977.38
2019-02-09T08:03:45.553Z,977.38
2019-02-09T08:04:45.546Z,977.52
2019-02-09T08:05:45.535Z,977.51
2019-02-09T08:06:45.571Z,977.54
2019-02-09T08:07:45.522Z,977.52
2019-02-09T08:08:45.507Z,977.54
2019-02-09T08:09:45.522Z,977.61
2019-02-09T08:10:45.499Z,977.56
2019-02-09T08:11:45.478Z,977.63
2019-02-09T08:12:45.523Z,977.64
2019-02-09T08:13:45.456Z,977.66
2019-02-09T08:14:45.518Z,977.61
2019-02-09T08:15:45.436Z,977.71
2019-02-09T08:16:45.431Z,977.67
2019-02-09T08:17:45.455Z,977.73
2019-02-09T08:18:45.395Z,977.75
2019-02-09T08:19:45.427Z,977.91
2019-02-09T08:20:45.384Z,977.84
2019-02-09T08:21:45.417Z,977.85
2019-02-09T08:22:45.433Z,977.83
2019-02-09T08:23:45.485Z,977.81
2019-02-09T08:24:45.346Z,977.87
2019-02-09T08:25:45.364Z,977.92
2019-02-09T08:26:45.328Z,977.73
2019-02-09T08:27:45.378Z,977.85
2019-02-09T08:28:45.295Z,977.90
2019-02-09T08:29:45.289Z,977.84
2019-02-09T08:30:45.281Z,977.84
2019-02-09T08:31:45.299Z,977.81
2019-02-09T08:32:45.260Z,977.87
2019-02-09T08:33:45.297Z,977.92
2019-02-09T08:34:45.225Z,977.97
2019-02-09T08:35:45.386Z,977.87
2019-02-09T08:36:45.230Z,977.98
2019-02-09T08:37:45.209Z,977.91
2019-02-09T08:38:45.184Z,977.91
2019-02-09T08:39:45.183Z,977.59
2019-02-09T08:40:45.164Z,977.93
2019-02-09T08:41:45.187Z,977.91
2019-02-09T08:42:45.161Z,977.88
2019-02-09T08:43:45.182Z,978.06
2019-02-09T08:44:45.121Z,977.94
2019-02-09T08:45:45.111Z,977.80
2019-02-09T08:46:45.101Z,977.91
2019-02-09T08:47:45.093Z,977.94
2019-02-09T08:48:45.088Z,978.02
2019-02-09T08:49:45.111Z,978.04
2019-02-09T08:50:45.060Z,977.94
2019-02-09T08:51:45.059Z,977.96
2019-02-09T08:52:45.037Z,977.95
2019-02-09T08:53:45.023Z,978.00
2019-02-09T08:54:45.047Z,978.02
2019-02-09T08:55:45.021Z,978.06
2019-02-09T08:56:44.997Z,977.93
2019-02-09T08:57:44.991Z,978.02
2019-02-09T08:58:44.969Z,978.00
2019-02-09T08:59:44.972Z,978.04
2019-02-09T09:00:44.947Z,977.98
2019-02-09T09:01:44.955Z,978.04
2019-02-09T09:02:44.947Z,977.95
2019-02-09T09:03:44.931Z,978.04
2019-02-09T09:04:44.909Z,978.17
2019-02-09T09:05:46.213Z,978.04
2019-02-09T09:06:44.881Z,978.05
2019-02-09T09:07:44.890Z,978.07
2019-02-09T09:08:44.860Z,978.10
2019-02-09T09:09:44.864Z,978.02
2019-02-09T09:10:44.859Z,978.20
2019-02-09T09:11:44.834Z,978.14
2019-02-09T09:12:44.817Z,978.10
2019-02-09T09:13:44.824Z,977.96
2019-02-09T09:14:44.795Z,978.17
2019-02-09T09:15:44.794Z,978.11
2019-02-09T09:16:44.793Z,978.14
2019-02-09T09:17:44.793Z,978.09
2019-02-09T09:18:44.757Z,978.24
2019-02-09T09:19:44.756Z,978.20
2019-02-09T09:20:44.730Z,978.16
2019-02-09T09:21:44.721Z,977.92
2019-02-09T09:22:44.732Z,978.15
2019-02-09T09:23:44.704Z,978.11
2019-02-09T09:24:44.746Z,978.14
2019-02-09T09:25:44.681Z,978.12
2019-02-09T09:26:44.673Z,978.23
2019-02-09T09:27:44.662Z,978.09
2019-02-09T09:28:44.662Z,978.06
2019-02-09T09:29:44.955Z,978.16
2019-02-09T09:30:44.653Z,978.03
2019-02-09T09:31:44.611Z,978.13
2019-02-09T09:32:44.613Z,978.15
2019-02-09T09:33:44.601Z,978.11
2019-02-09T09:34:44.656Z,978.19
2019-02-09T09:35:44.618Z,978.21
2019-02-09T09:36:44.562Z,978.28
2019-02-09T09:37:44.555Z,978.26
2019-02-09T09:38:44.548Z,978.24
2019-02-09T09:39:44.543Z,978.32
2019-02-09T09:40:44.543Z,978.29
2019-02-09T09:41:44.528Z,978.29
2019-02-09T09:42:44.495Z,978.26
2019-02-09T09:43:44.489Z,978.34
2019-02-09T09:44:44.551Z,978.32
2019-02-09T09:45:44.472Z,978.30
2019-02-09T09:46:44.455Z,978.37
2019-02-09T09:47:44.459Z,978.42
2019-02-09T09:48:44.432Z,978.23
2019-02-09T09:49:44.421Z,978.46
2019-02-09T09:50:44.477Z,978.50
2019-02-09T09:51:44.408Z,978.48
2019-02-09T09:52:44.389Z,978.54
2019-02-09T09:53:44.407Z,978.30
2019-02-09T09:54:44.366Z,978.45
2019-02-09T09:55:44.362Z,978.41
2019-02-09T09:56:44.351Z,978.37
2019-02-09T09:57:44.381Z,978.38
2019-02-09T09:58:44.325Z,978.59
2019-02-09T09:59:44.363Z,978.58
2019-02-09T10:00:44.461Z,978.50
2019-02-09T10:01:44.297Z,978.45
2019-02-09T10:02:44.293Z,978.32
2019-02-09T10:03:44.330Z,978.42
2019-02-09T10:04:44.261Z,978.44
2019-02-09T10:05:44.278Z,978.39
2019-02-09T10:06:44.244Z,978.36
2019-02-09T10:07:44.241Z,978.47
2019-02-09T10:08:44.232Z,978.50
2019-02-09T10:09:44.228Z,978.38
2019-02-09T10:10:44.214Z,978.33
2019-02-09T10:11:44.210Z,978.43
2019-02-09T10:12:44.225Z,978.49
2019-02-09T10:13:44.167Z,978.42
2019-02-09T10:14:44.165Z,978.49
2019-02-09T10:15:44.178Z,978.48
2019-02-09T10:16:44.132Z,978.51
2019-02-09T10:17:44.136Z,978.51
2019-02-09T10:18:44.218Z,978.54
2019-02-09T10:19:44.112Z,978.58
2019-02-09T10:20:44.098Z,978.63
2019-02-09T10:21:44.112Z,978.51
2019-02-09T10:22:44.075Z,978.63
2019-02-09T10:23:45.382Z,978.59
2019-02-09T10:24:44.090Z,978.60
2019-02-09T10:25:44.041Z,978.61
2019-02-09T10:26:44.043Z,978.58
2019-02-09T10:27:44.029Z,978.64
2019-02-09T10:28:44.005Z,978.55
2019-02-09T10:29:44.009Z,978.57
2019-02-09T10:30:44.017Z,978.52
2019-02-09T10:31:43.987Z,978.50
2019-02-09T10:32:44.706Z,978.59
2019-02-09T10:33:44.031Z,978.62
2019-02-09T10:34:43.943Z,978.49
2019-02-09T10:35:43.937Z,978.60
2019-02-09T10:36:43.919Z,978.68
2019-02-09T10:37:43.942Z,978.85
2019-02-09T10:38:43.919Z,978.72
2019-02-09T10:39:43.946Z,978.76
2019-02-09T10:40:43.892Z,978.66
2019-02-09T10:41:43.869Z,978.72
2019-02-09T10:42:43.859Z,978.74
2019-02-09T10:43:43.909Z,978.64
2019-02-09T10:44:43.835Z,978.73
2019-02-09T10:45:43.843Z,978.85
2019-02-09T10:46:43.978Z,978.85
2019-02-09T10:47:43.893Z,978.78
2019-02-09T10:48:43.797Z,978.77
2019-02-09T10:49:43.795Z,978.69
2019-02-09T10:50:43.765Z,978.77
2019-02-09T10:51:43.772Z,978.83
2019-02-09T10:52:43.821Z,978.65
2019-02-09T10:53:43.743Z,978.77
2019-02-09T10:54:43.732Z,978.60
2019-02-09T10:55:43.747Z,978.70
2019-02-09T10:56:43.709Z,978.78
2019-02-09T10:57:44.128Z,978.81
2019-02-09T10:58:43.725Z,978.74
2019-02-09T10:59:43.684Z,978.73
2019-02-09T11:00:43.669Z,978.68
2019-02-09T11:01:43.655Z,978.75
2019-02-09T11:02:43.638Z,978.76
2019-02-09T11:03:43.984Z,978.63
2019-02-09T11:04:43.650Z,978.79
2019-02-09T11:05:43.608Z,978.75
2019-02-09T11:06:43.608Z,978.71
2019-02-09T11:07:43.586Z,978.73
2019-02-09T11:08:43.576Z,978.80
2019-02-09T11:09:43.645Z,978.70
2019-02-09T11:10:43.608Z,978.76
2019-02-09T11:11:43.548Z,978.67
2019-02-09T11:12:43.529Z,978.64
2019-02-09T11:13:43.530Z,978.70
2019-02-09T11:14:43.509Z,978.65
2019-02-09T11:15:43.540Z,978.77
2019-02-09T11:16:43.503Z,978.64
2019-02-09T11:17:43.493Z,978.49
2019-02-09T11:18:43.481Z,978.78
2019-02-09T11:19:43.455Z,978.76
2019-02-09T11:20:43.464Z,978.84
2019-02-09T11:21:43.433Z,978.78
2019-02-09T11:22:43.439Z,978.75
2019-02-09T11:23:43.454Z,978.68
2019-02-09T11:24:43.411Z,978.68
2019-02-09T11:25:43.392Z,978.61
2019-02-09T11:26:43.449Z,978.81
2019-02-09T11:27:43.370Z,978.93
2019-02-09T11:28:43.369Z,978.91
2019-02-09T11:29:43.358Z,978.95
2019-02-09T11:30:43.400Z,979.03
2019-02-09T11:31:43.373Z,978.90
2019-02-09T11:32:43.383Z,978.92
2019-02-09T11:33:43.345Z,979.00
2019-02-09T11:34:43.299Z,979.04
2019-02-09T11:35:43.339Z,979.05
2019-02-09T11:36:43.293Z,978.83
2019-02-09T11:37:43.297Z,978.91
2019-02-09T11:38:43.259Z,978.87
2019-02-09T11:39:43.242Z,978.84
2019-02-09T11:40:43.284Z,978.74
2019-02-09T11:41:43.228Z,978.82
2019-02-09T11:42:43.224Z,978.89
2019-02-09T11:43:43.199Z,978.87
2019-02-09T11:44:43.197Z,978.97
2019-02-09T11:45:43.199Z,978.91
2019-02-09T11:46:43.299Z,978.84
2019-02-09T11:47:43.172Z,978.81
2019-02-09T11:48:43.163Z,978.89
2019-02-09T11:49:43.409Z,978.90
2019-02-09T11:50:43.139Z,978.90
2019-02-09T11:51:43.136Z,978.93
2019-02-09T11:52:43.242Z,978.89
2019-02-09T11:53:43.097Z,978.79
2019-02-09T11:54:43.101Z,978.91
2019-02-09T11:55:43.075Z,978.94
2019-02-09T11:56:43.156Z,978.89
2019-02-09T11:57:43.125Z,978.78
2019-02-09T11:58:43.081Z,978.66
2019-02-09T11:59:43.034Z,978.91
2019-02-09T12:00:43.053Z,978.89
2019-02-09T12:01:43.696Z,979.01
2019-02-09T12:02:43.054Z,978.86
2019-02-09T12:03:43.019Z,978.88
2019-02-09T12:04:43.020Z,978.64
2019-02-09T12:05:42.989Z,978.86
2019-02-09T12:06:42.964Z,978.77
2019-02-09T12:07:43.023Z,978.70
2019-02-09T12:08:42.935Z,978.84
2019-02-09T12:09:42.925Z,978.87
2019-02-09T12:10:42.937Z,978.88
2019-02-09T12:11:42.929Z,978.80
2019-02-09T12:12:42.894Z,978.78
2019-02-09T12:13:42.885Z,978.74
2019-02-09T12:14:42.986Z,978.78
2019-02-09T12:15:42.871Z,978.70
2019-02-09T12:16:42.910Z,978.79
2019-02-09T12:17:42.855Z,978.84
2019-02-09T12:18:42.828Z,978.76
2019-02-09T12:19:42.828Z,978.80
2019-02-09T12:20:42.821Z,978.83
2019-02-09T12:21:42.798Z,978.83
2019-02-09T12:22:42.896Z,978.97
2019-02-09T12:23:42.815Z,978.70
2019-02-09T12:24:42.763Z,978.88
2019-02-09T12:25:42.774Z,979.06
2019-02-09T12:26:42.741Z,979.06
2019-02-09T12:27:42.752Z,978.90
2019-02-09T12:28:42.877Z,978.96